createdAt,value
2023-02-03T00:02:24.025Z,13.87
2023-02-03T00:07:30.218Z,14.57
2023-02-03T00:12:32.135Z,13.57
2023-02-03T00:17:38.877Z,8.90
2023-02-03T00:22:40.652Z,15.83
2023-02-03T00:27:44.623Z,10.93
2023-02-03T00:32:46.322Z,10.47
2023-02-03T00:37:55.322Z,9.87
2023-02-03T00:42:57.263Z,10.93
2023-02-03T00:48:07.014Z,6.30
2023-02-03T00:53:08.735Z,9.63
2023-02-03T00:58:11.346Z,11.70
2023-02-03T01:03:15.247Z,12.27
2023-02-03T01:08:16.948Z,5.10
2023-02-03T01:13:21.141Z,8.90
2023-02-03T01:18:22.840Z,4.83
2023-02-03T01:23:24.553Z,12.20
2023-02-03T01:28:26.309Z,9.17
2023-02-03T01:33:30.132Z,17.17
2023-02-03T01:38:39.147Z,9.67
2023-02-03T01:43:49.761Z,13.27
2023-02-03T01:48:53.922Z,11.30
2023-02-03T01:54:01.156Z,7.63
2023-02-03T01:59:07.196Z,9.90
2023-02-03T02:04:09.126Z,9.80
2023-02-03T02:09:13.822Z,9.17
2023-02-03T02:14:22.956Z,16.77
2023-02-03T02:19:45.738Z,13.20
2023-02-03T02:25:03.187Z,12.43
2023-02-03T02:30:20.573Z,11.13
2023-02-03T02:35:41.491Z,8.10
2023-02-03T02:41:33.894Z,18.70
2023-02-03T02:46:46.623Z,4.17
2023-02-03T02:51:49.067Z,13.93
2023-02-03T02:56:59.538Z,12.60
2023-02-03T03:02:05.103Z,13.70
2023-02-03T03:07:12.137Z,8.40
2023-02-03T03:12:28.992Z,11.63
2023-02-03T03:17:52.214Z,13.27
2023-02-03T03:23:06.419Z,7.43
2023-02-03T03:28:16.021Z,11.10
2023-02-03T03:33:21.061Z,14.03
2023-02-03T03:38:33.095Z,10.00
2023-02-03T03:43:39.055Z,8.80
2023-02-03T03:49:02.515Z,10.57
2023-02-03T03:54:09.014Z,11.63
2023-02-03T03:59:16.783Z,15.73
2023-02-03T04:04:21.457Z,9.10
2023-02-03T04:09:25.715Z,18.10
2023-02-03T04:14:30.077Z,9.00
2023-02-03T04:19:39.642Z,10.57
2023-02-03T04:24:41.311Z,17.97
2023-02-03T04:29:47.600Z,8.00
2023-02-03T04:34:54.227Z,15.37
2023-02-03T04:39:58.541Z,17.97
2023-02-03T04:45:02.788Z,13.77
2023-02-03T04:50:07.647Z,10.33
2023-02-03T04:55:12.115Z,8.60
2023-02-03T05:00:14.379Z,11.17
2023-02-03T05:05:16.268Z,17.77
2023-02-03T05:10:18.052Z,11.17
2023-02-03T05:15:25.260Z,21.73
2023-02-03T05:20:28.437Z,18.83
2023-02-03T05:25:33.908Z,11.13
2023-02-03T05:30:41.951Z,20.20
2023-02-03T05:35:48.405Z,15.83
2023-02-03T05:41:10.959Z,18.67
2023-02-03T05:46:15.774Z,10.23
2023-02-03T05:51:17.645Z,18.27
2023-02-03T05:56:19.492Z,13.70
2023-02-03T06:01:21.164Z,18.10
2023-02-03T06:06:22.881Z,24.97
2023-02-03T06:11:26.972Z,18.93
2023-02-03T06:16:31.440Z,7.47
2023-02-03T06:21:35.565Z,18.30
2023-02-03T06:26:37.307Z,14.23
2023-02-03T06:31:43.952Z,15.40
2023-02-03T06:36:50.595Z,23.00
2023-02-03T06:41:56.976Z,16.13
2023-02-03T06:47:03.081Z,17.87
2023-02-03T06:52:09.651Z,31.20
2023-02-03T06:57:13.893Z,23.37
2023-02-03T07:02:15.950Z,23.27
2023-02-03T07:07:19.827Z,24.27
2023-02-03T07:12:23.967Z,24.87
2023-02-03T07:17:28.123Z,27.67
2023-02-03T07:22:32.335Z,21.90
2023-02-03T07:27:36.467Z,33.27
2023-02-03T07:32:40.566Z,21.07
2023-02-03T07:37:43.140Z,34.53
2023-02-03T07:42:46.395Z,40.83
2023-02-03T07:47:51.927Z,43.17
2023-02-03T07:52:55.950Z,30.53
2023-02-03T07:57:58.735Z,41.70
2023-02-03T08:03:03.778Z,44.30
2023-02-03T08:08:08.930Z,36.47
2023-02-03T08:13:15.313Z,31.77
2023-02-03T08:18:17.342Z,37.47
2023-02-03T08:23:19.246Z,29.93
2023-02-03T08:28:25.558Z,29.33
2023-02-03T08:33:28.751Z,45.93
2023-02-03T08:38:30.520Z,52.63
2023-02-03T08:43:33.530Z,31.33
2023-02-03T08:48:38.182Z,62.33
2023-02-03T08:53:41.742Z,33.33
2023-02-03T08:58:44.938Z,49.77
2023-02-03T09:03:49.573Z,62.20
2023-02-03T09:08:53.369Z,57.43
2023-02-03T09:13:58.301Z,50.33
2023-02-03T09:19:03.088Z,57.47
2023-02-03T09:24:05.242Z,53.37
2023-02-03T09:29:09.285Z,49.77
2023-02-03T09:34:11.061Z,59.23
2023-02-03T09:39:13.163Z,56.00
2023-02-03T09:44:39.377Z,71.73
2023-02-03T09:50:09.126Z,56.97
2023-02-03T09:55:37.251Z,55.57
2023-02-03T10:01:01.278Z,55.97
2023-02-03T10:06:05.394Z,59.23
2023-02-03T10:11:13.206Z,54.30
2023-02-03T10:16:35.423Z,65.80
2023-02-03T10:21:50.412Z,58.93
2023-02-03T10:26:53.161Z,50.90
2023-02-03T10:32:03.422Z,45.63
2023-02-03T10:37:31.293Z,40.73
2023-02-03T10:42:54.467Z,54.90
2023-02-03T10:47:59.164Z,53.13
2023-02-03T10:53:19.705Z,51.57
2023-02-03T10:58:29.671Z,42.27
2023-02-03T11:03:31.957Z,47.80
2023-02-03T11:08:38.130Z,47.13
2023-02-03T11:13:42.894Z,38.73
2023-02-03T11:18:44.671Z,53.40
2023-02-03T11:24:06.563Z,47.47
2023-02-03T11:29:26.879Z,48.00
2023-02-03T11:34:32.608Z,44.27
2023-02-03T11:39:36.964Z,37.10
2023-02-03T11:44:41.375Z,36.50
2023-02-03T11:50:01.605Z,44.17
2023-02-03T11:55:18.669Z,42.87
2023-02-03T12:00:36.229Z,48.20
2023-02-03T12:06:01.173Z,43.40
2023-02-03T12:11:05.483Z,52.30
2023-02-03T12:16:23.084Z,50.10
2023-02-03T12:21:45.884Z,42.83
2023-02-03T12:27:06.605Z,41.37
2023-02-03T12:32:26.489Z,41.57
2023-02-03T12:37:43.729Z,43.00
2023-02-03T12:42:53.775Z,45.03
2023-02-03T12:48:04.451Z,40.73
2023-02-03T12:53:32.177Z,44.27
2023-02-03T12:58:48.600Z,48.67
2023-02-03T13:03:52.164Z,59.30
2023-02-03T13:08:55.964Z,47.37
2023-02-03T13:14:23.831Z,41.33
2023-02-03T13:19:29.768Z,41.40
2023-02-03T13:24:31.603Z,46.77
2023-02-03T13:29:39.727Z,29.13
2023-02-03T13:34:51.633Z,37.60
2023-02-03T13:40:31.449Z,37.57
2023-02-03T13:45:39.437Z,41.87
2023-02-03T13:50:41.607Z,40.53
2023-02-03T13:55:51.849Z,31.57
2023-02-03T14:00:54.438Z,26.47
2023-02-03T14:06:01.724Z,40.80
2023-02-03T14:11:34.801Z,46.13
2023-02-03T14:16:52.064Z,45.67
2023-02-03T14:22:02.558Z,32.13
2023-02-03T14:27:15.709Z,52.50
2023-02-03T14:32:19.744Z,33.03
2023-02-03T14:37:24.389Z,54.77
2023-02-03T14:43:11.518Z,49.77
2023-02-03T14:48:48.675Z,43.13
2023-02-03T14:54:02.613Z,41.53
2023-02-03T14:59:09.001Z,40.93
2023-02-03T15:04:13.744Z,31.83
2023-02-03T15:09:35.127Z,41.83
2023-02-03T15:14:37.795Z,42.13
2023-02-03T15:19:42.988Z,34.97
2023-02-03T15:24:51.032Z,35.40
2023-02-03T15:29:58.936Z,47.57
2023-02-03T15:35:06.059Z,48.47
2023-02-03T15:40:19.967Z,46.70
2023-02-03T15:46:01.803Z,40.20
2023-02-03T15:51:16.587Z,48.05
2023-02-03T15:56:26.525Z,46.50
2023-02-03T16:01:30.931Z,52.30
2023-02-03T16:06:39.211Z,49.57
2023-02-03T16:11:41.774Z,39.77
2023-02-03T16:17:04.387Z,53.20
2023-02-03T16:22:32.485Z,52.30
2023-02-03T16:27:34.634Z,56.57
2023-02-03T16:32:59.005Z,38.77
2023-02-03T16:38:33.063Z,39.40
2023-02-03T16:43:56.636Z,45.97
2023-02-03T16:49:17.551Z,50.70
2023-02-03T16:54:24.561Z,47.70
2023-02-03T16:59:31.216Z,49.63
2023-02-03T17:04:36.692Z,53.10
2023-02-03T17:09:38.486Z,43.13
2023-02-03T17:14:40.510Z,55.50
2023-02-03T17:19:43.595Z,54.60
2023-02-03T17:24:47.963Z,51.90
2023-02-03T17:29:49.676Z,53.93
2023-02-03T17:34:55.070Z,53.07
2023-02-03T17:56:06.167Z,63.60
2023-02-03T18:01:20.462Z,52.27
2023-02-03T18:06:29.977Z,57.90
2023-02-03T18:11:32.844Z,52.70
2023-02-03T18:16:36.164Z,53.63
2023-02-03T18:21:41.110Z,55.23
2023-02-03T18:26:51.414Z,61.50
2023-02-03T18:31:53.705Z,61.67
2023-02-03T18:37:00.209Z,61.13
2023-02-03T18:42:01.971Z,64.70
2023-02-03T18:47:07.099Z,52.27
2023-02-03T18:52:09.223Z,69.47
2023-02-03T18:57:16.300Z,50.73
2023-02-03T19:02:18.181Z,59.23
2023-02-03T19:07:22.213Z,63.33
2023-02-03T19:12:29.031Z,54.27
2023-02-03T19:17:30.844Z,56.27
2023-02-03T19:22:37.892Z,71.00
2023-02-03T19:27:41.869Z,62.57
2023-02-03T19:32:48.971Z,59.23
2023-02-03T19:37:55.563Z,63.83
2023-02-03T19:43:03.919Z,72.40
2023-02-03T19:48:08.620Z,68.83
2023-02-03T19:53:13.039Z,57.10
2023-02-03T19:58:16.955Z,62.13
2023-02-03T20:03:19.912Z,70.90
2023-02-03T20:08:23.107Z,55.60
2023-02-03T20:13:27.386Z,68.10
2023-02-03T20:18:31.449Z,65.67
2023-02-03T20:23:33.454Z,76.33
2023-02-03T20:28:35.782Z,68.87
2023-02-03T20:33:41.905Z,76.37
2023-02-03T20:38:46.122Z,72.10
2023-02-03T20:43:51.707Z,66.03
2023-02-03T20:48:57.030Z,78.63
2023-02-03T20:53:58.714Z,66.40
2023-02-03T20:59:00.421Z,68.37
2023-02-03T21:04:20.955Z,67.63
2023-02-03T21:09:28.588Z,74.73
2023-02-03T21:14:37.464Z,64.60
2023-02-03T21:19:39.392Z,75.57
2023-02-03T21:24:42.902Z,70.13
2023-02-03T21:29:44.603Z,63.17
2023-02-03T21:34:48.435Z,65.03
2023-02-03T21:39:52.865Z,64.80
2023-02-03T21:44:54.647Z,69.43
2023-02-03T21:50:00.316Z,68.47
2023-02-03T21:55:10.595Z,61.13
2023-02-03T22:00:39.732Z,72.20
2023-02-03T22:05:44.728Z,62.90
2023-02-03T22:10:49.520Z,56.97
2023-02-03T22:15:53.414Z,21.57
2023-02-03T22:20:57.264Z,28.83
2023-02-03T22:26:03.700Z,35.90
2023-02-03T22:31:08.596Z,21.70
2023-02-03T22:36:13.286Z,36.40
2023-02-03T22:41:15.057Z,39.47
2023-02-03T22:46:19.053Z,29.43
2023-02-03T22:51:21.019Z,29.53
2023-02-03T22:56:25.127Z,19.37
2023-02-03T23:01:27.861Z,17.37
2023-02-03T23:06:29.543Z,16.10
2023-02-03T23:11:34.277Z,14.87
2023-02-03T23:16:38.482Z,13.57
2023-02-03T23:21:40.486Z,13.07
2023-02-03T23:26:42.187Z,17.90
2023-02-03T23:31:46.717Z,15.23
2023-02-03T23:36:48.443Z,15.80
2023-02-03T23:41:52.431Z,11.27
2023-02-03T23:46:55.401Z,17.50
2023-02-03T23:52:00.038Z,15.33
2023-02-03T23:57:04.863Z,13.63
